Rock Creek, Ohio
Current Conditions -  °F | °C
As of 4:00 PM on Tuesday 25 Nov 2014 (Local Time) from KHZY Reporting Station
Overcast Overcast  
Wind Chill: 25°   Ceiling: 3100
Heat Index: 35°   Visibility: 10mi
Dew Point: 25°   Wind: 16mph
Humidity: 67%   Direction: 240°WSW
Pressure: 30.08"   Gusts: NA
Location:  41.66°N, 80.86°W
Report Text: KHZY 252100Z AUTO 24014KT 10SM OVC031 02/M04 A3008 RMK AO2 T00171039
Loading
Personal Weather Stations






























Interactive Weather Map New forecast layout! Learn more

10-Day Weather Forecast

Advertisements
Track Severe Weather on mobile